SWA6090 KLAS-KLAX
Flight info
| Callsign | SWA6090 |
|---|---|
| Flight time | 0h 44m |
| Altitude | 22000 |
| Route | RADYR2 BLAQQ SHTNR ANJLL4 |
| Aircraft | B738/M-SDE2E3FGHIRWXY/LB1 |
Departure
| Time | 2026-05-04 22:20 |
|---|---|
| Airport | Harry Reid International Airport (KLAS) |
Arrival
| Time | 2026-05-04 23:05 |
|---|---|
| Airport | Los Angeles International Airport (KLAX) |
| Time | Latitude | Longitude | Altitude | Speed | Heading |
|---|---|---|---|---|---|
| 2026-05-04 21:41 | 36.08156 | -115.14630 | 2187 ft | 0 kts | 254° |
| 2026-05-04 22:09 | 36.08163 | -115.14603 | 2190 ft | 4 kts | 244° |
| 2026-05-04 22:09 | 36.08177 | -115.14575 | 2189 ft | 4 kts | 224° |
| 2026-05-04 22:09 | 36.08198 | -115.14560 | 2190 ft | 4 kts | 173° |
| 2026-05-04 22:09 | 36.08209 | -115.14564 | 2189 ft | 1 kts | 155° |
| 2026-05-04 22:12 | 36.08186 | -115.14551 | 2189 ft | 7 kts | 156° |
| 2026-05-04 22:13 | 36.08119 | -115.14513 | 2187 ft | 14 kts | 155° |
| 2026-05-04 22:13 | 36.08016 | -115.14469 | 2188 ft | 18 kts | 145° |
| 2026-05-04 22:13 | 36.07889 | -115.14437 | 2188 ft | 21 kts | 182° |
| 2026-05-04 22:13 | 36.07759 | -115.14394 | 2189 ft | 23 kts | 102° |
| 2026-05-04 22:14 | 36.07754 | -115.14175 | 2187 ft | 28 kts | 89° |
| 2026-05-04 22:14 | 36.07753 | -115.13921 | 2188 ft | 30 kts | 91° |
| 2026-05-04 22:14 | 36.07755 | -115.13674 | 2188 ft | 28 kts | 90° |
| 2026-05-04 22:14 | 36.07755 | -115.13441 | 2189 ft | 26 kts | 90° |
| 2026-05-04 22:15 | 36.07755 | -115.13223 | 2188 ft | 24 kts | 90° |
| 2026-05-04 22:15 | 36.07755 | -115.13021 | 2188 ft | 23 kts | 90° |
| 2026-05-04 22:15 | 36.07755 | -115.12827 | 2187 ft | 22 kts | 90° |
| 2026-05-04 22:15 | 36.07755 | -115.12638 | 2187 ft | 22 kts | 89° |
| 2026-05-04 22:16 | 36.07756 | -115.12455 | 2187 ft | 21 kts | 90° |
| 2026-05-04 22:16 | 36.07755 | -115.12277 | 2187 ft | 19 kts | 90° |
| 2026-05-04 22:16 | 36.07756 | -115.12219 | 2187 ft | 0 kts | 89° |
| 2026-05-04 22:18 | 36.07756 | -115.12218 | 2187 ft | 1 kts | 89° |
| 2026-05-04 22:18 | 36.07756 | -115.12204 | 2187 ft | 3 kts | 90° |
| 2026-05-04 22:18 | 36.07753 | -115.12162 | 2187 ft | 8 kts | 106° |
| 2026-05-04 22:18 | 36.07688 | -115.12126 | 2192 ft | 14 kts | 182° |
| 2026-05-04 22:19 | 36.07642 | -115.12201 | 2189 ft | 11 kts | 271° |
| 2026-05-04 22:19 | 36.07643 | -115.12213 | 2189 ft | 0 kts | 270° |
| 2026-05-04 22:19 | 36.07643 | -115.12229 | 2189 ft | 18 kts | 270° |
| 2026-05-04 22:20 | 36.07642 | -115.12772 | 2188 ft | 105 kts | 269° |
| 2026-05-04 22:20 | 36.07634 | -115.13999 | 2226 ft | 174 kts | 270° |
| 2026-05-04 22:20 | 36.07726 | -115.15599 | 2929 ft | 197 kts | 269° |
| 2026-05-04 22:20 | 36.07759 | -115.17412 | 3329 ft | 228 kts | 267° |
| 2026-05-04 22:21 | 36.07756 | -115.19264 | 3652 ft | 255 kts | 266° |
| 2026-05-04 22:21 | 36.07577 | -115.21492 | 4469 ft | 259 kts | 257° |
| 2026-05-04 22:21 | 36.07244 | -115.23589 | 5871 ft | 241 kts | 253° |
| 2026-05-04 22:21 | 36.06531 | -115.25343 | 7141 ft | 224 kts | 228° |
| 2026-05-04 22:22 | 36.05304 | -115.26595 | 7712 ft | 239 kts | 207° |
| 2026-05-04 22:22 | 36.03709 | -115.27433 | 7984 ft | 255 kts | 201° |
| 2026-05-04 22:22 | 36.02038 | -115.28178 | 7989 ft | 255 kts | 200° |
| 2026-05-04 22:22 | 36.00356 | -115.28921 | 8016 ft | 258 kts | 200° |
| 2026-05-04 22:23 | 35.98637 | -115.29623 | 8112 ft | 260 kts | 194° |
| 2026-05-04 22:23 | 35.96860 | -115.30091 | 8800 ft | 263 kts | 191° |
| 2026-05-04 22:23 | 35.95061 | -115.30510 | 9840 ft | 261 kts | 191° |
| 2026-05-04 22:23 | 35.93254 | -115.30926 | 10613 ft | 269 kts | 191° |
| 2026-05-04 22:24 | 35.91321 | -115.31380 | 10817 ft | 296 kts | 192° |
| 2026-05-04 22:24 | 35.89237 | -115.31877 | 11029 ft | 321 kts | 192° |
| 2026-05-04 22:24 | 35.86995 | -115.32416 | 11505 ft | 334 kts | 192° |
| 2026-05-04 22:24 | 35.84699 | -115.32973 | 12293 ft | 338 kts | 192° |
| 2026-05-04 22:25 | 35.82370 | -115.33542 | 13058 ft | 343 kts | 193° |
| 2026-05-04 22:25 | 35.80014 | -115.34117 | 13808 ft | 347 kts | 193° |
| 2026-05-04 22:25 | 35.77633 | -115.34699 | 14541 ft | 350 kts | 194° |
| 2026-05-04 22:25 | 35.76050 | -115.35086 | 15035 ft | 351 kts | 194° |
| 2026-05-04 22:26 | 35.72827 | -115.35874 | 16039 ft | 354 kts | 194° |
| 2026-05-04 22:26 | 35.70403 | -115.36467 | 16743 ft | 357 kts | 195° |
| 2026-05-04 22:26 | 35.68783 | -115.36863 | 17206 ft | 359 kts | 195° |
| 2026-05-04 22:26 | 35.66320 | -115.37465 | 17905 ft | 362 kts | 195° |
| 2026-05-04 22:27 | 35.63840 | -115.38071 | 18525 ft | 365 kts | 195° |
| 2026-05-04 22:27 | 35.61339 | -115.38668 | 19107 ft | 368 kts | 193° |
| 2026-05-04 22:27 | 35.58749 | -115.38799 | 19695 ft | 379 kts | 182° |
| 2026-05-04 22:27 | 35.56106 | -115.38555 | 20310 ft | 382 kts | 181° |
| 2026-05-04 22:28 | 35.53442 | -115.38297 | 20868 ft | 385 kts | 182° |
| 2026-05-04 22:28 | 35.50762 | -115.38073 | 21404 ft | 388 kts | 183° |
| 2026-05-04 22:28 | 35.48091 | -115.37877 | 21930 ft | 391 kts | 183° |
| 2026-05-04 22:28 | 35.45338 | -115.37774 | 22451 ft | 389 kts | 191° |
| 2026-05-04 22:29 | 35.42766 | -115.38450 | 22936 ft | 381 kts | 206° |
| 2026-05-04 22:29 | 35.40377 | -115.39831 | 23423 ft | 380 kts | 212° |
| 2026-05-04 22:29 | 35.38041 | -115.41354 | 23856 ft | 376 kts | 213° |
| 2026-05-04 22:29 | 35.35739 | -115.42874 | 23855 ft | 374 kts | 213° |
| 2026-05-04 22:30 | 35.33441 | -115.44387 | 23870 ft | 377 kts | 213° |
| 2026-05-04 22:30 | 35.31118 | -115.45898 | 23876 ft | 377 kts | 212° |
| 2026-05-04 22:30 | 35.28801 | -115.47392 | 23882 ft | 376 kts | 212° |
| 2026-05-04 22:30 | 35.26485 | -115.48878 | 23887 ft | 376 kts | 212° |
| 2026-05-04 22:31 | 35.24193 | -115.50343 | 23884 ft | 376 kts | 212° |
| 2026-05-04 22:31 | 35.21873 | -115.51825 | 23890 ft | 376 kts | 212° |
| 2026-05-04 22:31 | 35.19553 | -115.53305 | 23892 ft | 376 kts | 212° |
| 2026-05-04 22:31 | 35.17233 | -115.54785 | 23884 ft | 377 kts | 212° |
| 2026-05-04 22:32 | 35.14903 | -115.56268 | 23881 ft | 377 kts | 212° |
| 2026-05-04 22:32 | 35.12622 | -115.57835 | 23856 ft | 374 kts | 219° |
| 2026-05-04 22:32 | 35.10715 | -115.59921 | 23882 ft | 365 kts | 229° |
| 2026-05-04 22:32 | 35.08975 | -115.62181 | 23876 ft | 366 kts | 229° |
| 2026-05-04 22:33 | 35.07232 | -115.64450 | 23894 ft | 366 kts | 229° |
| 2026-05-04 22:33 | 35.05484 | -115.66715 | 23883 ft | 367 kts | 229° |
| 2026-05-04 22:33 | 35.03724 | -115.68983 | 23881 ft | 368 kts | 228° |
| 2026-05-04 22:33 | 35.01960 | -115.71245 | 23878 ft | 368 kts | 228° |
| 2026-05-04 22:34 | 35.00190 | -115.73507 | 23877 ft | 369 kts | 228° |
| 2026-05-04 22:34 | 34.98414 | -115.75770 | 23877 ft | 369 kts | 228° |
| 2026-05-04 22:34 | 34.96660 | -115.78002 | 23872 ft | 369 kts | 228° |
| 2026-05-04 22:34 | 34.94882 | -115.80265 | 23867 ft | 369 kts | 228° |
| 2026-05-04 22:35 | 34.93106 | -115.82523 | 23860 ft | 369 kts | 228° |
| 2026-05-04 22:35 | 34.91327 | -115.84783 | 23862 ft | 368 kts | 228° |
| 2026-05-04 22:35 | 34.89552 | -115.87035 | 23864 ft | 368 kts | 228° |
| 2026-05-04 22:35 | 34.87779 | -115.89285 | 23854 ft | 368 kts | 228° |
| 2026-05-04 22:36 | 34.86006 | -115.91533 | 23854 ft | 368 kts | 228° |
| 2026-05-04 22:36 | 34.84236 | -115.93776 | 23857 ft | 367 kts | 228° |
| 2026-05-04 22:36 | 34.82465 | -115.96019 | 23877 ft | 367 kts | 228° |
| 2026-05-04 22:36 | 34.80693 | -115.98262 | 23865 ft | 368 kts | 228° |
| 2026-05-04 22:37 | 34.78919 | -116.00507 | 23858 ft | 367 kts | 228° |
| 2026-05-04 22:37 | 34.77147 | -116.02745 | 23849 ft | 366 kts | 228° |
| 2026-05-04 22:37 | 34.75384 | -116.04982 | 23845 ft | 365 kts | 228° |
| 2026-05-04 22:37 | 34.73628 | -116.07220 | 23851 ft | 365 kts | 228° |
| 2026-05-04 22:38 | 34.71878 | -116.09452 | 23852 ft | 364 kts | 228° |
| 2026-05-04 22:38 | 34.70129 | -116.11680 | 23844 ft | 364 kts | 228° |
| 2026-05-04 22:38 | 34.68384 | -116.13903 | 23855 ft | 363 kts | 228° |
| 2026-05-04 22:38 | 34.66641 | -116.16119 | 23861 ft | 363 kts | 228° |
| 2026-05-04 22:39 | 34.64898 | -116.18336 | 23853 ft | 363 kts | 228° |
| 2026-05-04 22:39 | 34.63152 | -116.20548 | 23869 ft | 362 kts | 228° |
| 2026-05-04 22:39 | 34.61434 | -116.22725 | 23854 ft | 364 kts | 228° |
| 2026-05-04 22:39 | 34.59658 | -116.24982 | 23853 ft | 364 kts | 228° |
| 2026-05-04 22:40 | 34.57923 | -116.27185 | 23882 ft | 364 kts | 228° |
| 2026-05-04 22:40 | 34.56166 | -116.29412 | 23873 ft | 365 kts | 228° |
| 2026-05-04 22:40 | 34.54412 | -116.31633 | 23871 ft | 365 kts | 228° |
| 2026-05-04 22:40 | 34.52655 | -116.33855 | 23872 ft | 365 kts | 228° |
| 2026-05-04 22:41 | 34.50896 | -116.36079 | 23867 ft | 364 kts | 228° |
| 2026-05-04 22:41 | 34.49144 | -116.38294 | 23879 ft | 364 kts | 228° |
| 2026-05-04 22:41 | 34.47393 | -116.40506 | 23860 ft | 364 kts | 228° |
| 2026-05-04 22:41 | 34.45643 | -116.42713 | 23870 ft | 362 kts | 228° |
| 2026-05-04 22:42 | 34.43901 | -116.44909 | 23878 ft | 361 kts | 228° |
| 2026-05-04 22:42 | 34.42177 | -116.47117 | 23885 ft | 359 kts | 231° |
| 2026-05-04 22:42 | 34.40800 | -116.49634 | 23886 ft | 359 kts | 243° |
| 2026-05-04 22:42 | 34.39731 | -116.52371 | 23897 ft | 359 kts | 243° |
| 2026-05-04 22:43 | 34.38637 | -116.55092 | 23906 ft | 359 kts | 243° |
| 2026-05-04 22:43 | 34.37528 | -116.57806 | 23911 ft | 360 kts | 242° |
| 2026-05-04 22:43 | 34.36411 | -116.60520 | 23905 ft | 360 kts | 242° |
| 2026-05-04 22:43 | 34.35303 | -116.63204 | 23920 ft | 361 kts | 242° |
| 2026-05-04 22:44 | 34.34179 | -116.65925 | 23918 ft | 361 kts | 242° |
| 2026-05-04 22:44 | 34.33059 | -116.68646 | 23911 ft | 361 kts | 243° |
| 2026-05-04 22:44 | 34.31955 | -116.71377 | 23909 ft | 361 kts | 243° |
| 2026-05-04 22:44 | 34.30862 | -116.74103 | 23911 ft | 359 kts | 243° |
| 2026-05-04 22:45 | 34.29799 | -116.76753 | 23933 ft | 342 kts | 243° |
| 2026-05-04 22:45 | 34.27785 | -116.81771 | 23693 ft | 329 kts | 243° |
| 2026-05-04 22:45 | 34.26794 | -116.84230 | 23359 ft | 323 kts | 243° |
| 2026-05-04 22:46 | 34.25828 | -116.86628 | 22934 ft | 319 kts | 243° |
| 2026-05-04 22:46 | 34.24860 | -116.89027 | 22497 ft | 316 kts | 243° |
| 2026-05-04 22:46 | 34.23899 | -116.91408 | 22029 ft | 314 kts | 243° |
| 2026-05-04 22:46 | 34.22944 | -116.93770 | 21582 ft | 311 kts | 243° |
| 2026-05-04 22:47 | 34.21995 | -116.96114 | 21151 ft | 308 kts | 243° |
| 2026-05-04 22:47 | 34.21065 | -116.98434 | 20712 ft | 307 kts | 244° |
| 2026-05-04 22:47 | 34.20309 | -117.00876 | 20155 ft | 313 kts | 250° |
| 2026-05-04 22:47 | 34.19662 | -117.03393 | 19658 ft | 313 kts | 251° |
| 2026-05-04 22:48 | 34.19026 | -117.05901 | 19284 ft | 311 kts | 250° |
| 2026-05-04 22:48 | 34.18375 | -117.08394 | 18833 ft | 312 kts | 250° |
| 2026-05-04 22:48 | 34.17707 | -117.10890 | 18421 ft | 312 kts | 250° |
| 2026-05-04 22:48 | 34.17033 | -117.13384 | 17970 ft | 312 kts | 250° |
| 2026-05-04 22:49 | 34.16361 | -117.15861 | 17376 ft | 315 kts | 250° |
| 2026-05-04 22:49 | 34.15677 | -117.18349 | 16975 ft | 313 kts | 250° |
| 2026-05-04 22:49 | 34.14995 | -117.20840 | 16630 ft | 312 kts | 250° |
| 2026-05-04 22:49 | 34.14309 | -117.23325 | 16209 ft | 312 kts | 250° |
| 2026-05-04 22:50 | 34.13624 | -117.25809 | 15803 ft | 311 kts | 250° |
| 2026-05-04 22:50 | 34.12943 | -117.28278 | 15414 ft | 309 kts | 250° |
| 2026-05-04 22:50 | 34.12264 | -117.30741 | 15003 ft | 309 kts | 250° |
| 2026-05-04 22:50 | 34.11587 | -117.33197 | 14609 ft | 308 kts | 250° |
| 2026-05-04 22:51 | 34.10910 | -117.35643 | 14211 ft | 307 kts | 250° |
| 2026-05-04 22:51 | 34.10247 | -117.38092 | 13867 ft | 306 kts | 251° |
| 2026-05-04 22:51 | 34.09628 | -117.40555 | 13542 ft | 309 kts | 252° |
| 2026-05-04 22:51 | 34.09009 | -117.43067 | 13210 ft | 315 kts | 252° |
| 2026-05-04 22:52 | 34.08385 | -117.45579 | 12905 ft | 319 kts | 252° |
| 2026-05-04 22:52 | 34.07744 | -117.48144 | 12599 ft | 318 kts | 252° |
| 2026-05-04 22:52 | 34.07108 | -117.50677 | 12290 ft | 313 kts | 252° |
| 2026-05-04 22:52 | 34.06474 | -117.53167 | 11971 ft | 308 kts | 252° |
| 2026-05-04 22:53 | 34.05848 | -117.55616 | 11673 ft | 303 kts | 252° |
| 2026-05-04 22:53 | 34.05230 | -117.58031 | 11392 ft | 300 kts | 253° |
| 2026-05-04 22:53 | 34.04616 | -117.60429 | 11102 ft | 297 kts | 253° |
| 2026-05-04 22:53 | 34.04011 | -117.62791 | 10818 ft | 292 kts | 253° |
| 2026-05-04 22:54 | 34.03416 | -117.65114 | 10535 ft | 288 kts | 253° |
| 2026-05-04 22:54 | 34.02828 | -117.67407 | 10281 ft | 284 kts | 253° |
| 2026-05-04 22:54 | 34.02259 | -117.69637 | 10013 ft | 280 kts | 255° |
| 2026-05-04 22:54 | 34.01904 | -117.71914 | 9941 ft | 270 kts | 263° |
| 2026-05-04 22:55 | 34.01714 | -117.74128 | 9972 ft | 261 kts | 264° |
| 2026-05-04 22:55 | 34.01516 | -117.76281 | 9825 ft | 258 kts | 263° |
| 2026-05-04 22:55 | 34.01318 | -117.78521 | 9047 ft | 276 kts | 264° |
| 2026-05-04 22:55 | 34.01116 | -117.80865 | 8493 ft | 282 kts | 264° |
| 2026-05-04 22:56 | 34.00901 | -117.83199 | 8108 ft | 278 kts | 263° |
| 2026-05-04 22:56 | 34.00682 | -117.85488 | 7752 ft | 271 kts | 263° |
| 2026-05-04 22:56 | 34.00465 | -117.87710 | 7441 ft | 263 kts | 263° |
| 2026-05-04 22:56 | 34.00253 | -117.89870 | 7136 ft | 256 kts | 263° |
| 2026-05-04 22:57 | 34.00082 | -117.91969 | 6857 ft | 249 kts | 268° |
| 2026-05-04 22:57 | 34.00022 | -117.94029 | 6603 ft | 242 kts | 265° |
| 2026-05-04 22:57 | 33.99837 | -117.95987 | 6440 ft | 228 kts | 263° |
| 2026-05-04 22:57 | 33.99627 | -117.97837 | 6132 ft | 221 kts | 263° |
| 2026-05-04 22:58 | 33.99427 | -117.99693 | 5871 ft | 230 kts | 263° |
| 2026-05-04 22:58 | 33.99223 | -118.01640 | 5579 ft | 236 kts | 262° |
| 2026-05-04 22:58 | 33.99013 | -118.03627 | 5253 ft | 240 kts | 262° |
| 2026-05-04 22:58 | 33.98806 | -118.05591 | 4947 ft | 237 kts | 262° |
| 2026-05-04 22:59 | 33.98600 | -118.07542 | 4676 ft | 234 kts | 263° |
| 2026-05-04 22:59 | 33.98396 | -118.09483 | 4424 ft | 232 kts | 262° |
| 2026-05-04 22:59 | 33.98195 | -118.11374 | 4181 ft | 224 kts | 262° |
| 2026-05-04 22:59 | 33.98002 | -118.13201 | 4026 ft | 213 kts | 262° |
| 2026-05-04 23:00 | 33.97824 | -118.14911 | 3871 ft | 200 kts | 262° |
| 2026-05-04 23:00 | 33.97652 | -118.16559 | 3618 ft | 192 kts | 261° |
| 2026-05-04 23:00 | 33.97485 | -118.18154 | 3393 ft | 192 kts | 261° |
| 2026-05-04 23:00 | 33.97318 | -118.19756 | 3175 ft | 191 kts | 260° |
| 2026-05-04 23:01 | 33.97153 | -118.21345 | 2966 ft | 191 kts | 261° |
| 2026-05-04 23:01 | 33.96990 | -118.22920 | 2739 ft | 187 kts | 259° |
| 2026-05-04 23:01 | 33.96832 | -118.24442 | 2547 ft | 182 kts | 259° |
| 2026-05-04 23:01 | 33.96671 | -118.25985 | 2423 ft | 187 kts | 261° |
| 2026-05-04 23:02 | 33.96509 | -118.27550 | 2220 ft | 189 kts | 261° |
| 2026-05-04 23:02 | 33.96352 | -118.29079 | 1980 ft | 185 kts | 261° |
| 2026-05-04 23:02 | 33.96196 | -118.30594 | 1732 ft | 182 kts | 262° |
| 2026-05-04 23:02 | 33.96042 | -118.32082 | 1497 ft | 177 kts | 262° |
| 2026-05-04 23:03 | 33.95896 | -118.33515 | 1284 ft | 169 kts | 262° |
| 2026-05-04 23:03 | 33.95755 | -118.34894 | 1044 ft | 162 kts | 262° |
| 2026-05-04 23:03 | 33.95621 | -118.36186 | 822 ft | 150 kts | 262° |
| 2026-05-04 23:03 | 33.95497 | -118.37396 | 622 ft | 139 kts | 262° |
| 2026-05-04 23:04 | 33.95393 | -118.38520 | 409 ft | 135 kts | 265° |
| 2026-05-04 23:04 | 33.95273 | -118.39657 | 261 ft | 139 kts | 264° |
| 2026-05-04 23:04 | 33.95152 | -118.40814 | 135 ft | 130 kts | 264° |
| 2026-05-04 23:04 | 33.95050 | -118.41780 | 125 ft | 99 kts | 264° |
| 2026-05-04 23:05 | 33.94984 | -118.42370 | 123 ft | 46 kts | 259° |
| 2026-05-04 23:05 | 33.94887 | -118.42628 | 121 ft | 16 kts | 230° |
| 2026-05-04 23:05 | 33.94864 | -118.42665 | 123 ft | 0 kts | 227° |
| 2026-05-04 23:06 | 33.94856 | -118.42675 | 123 ft | 6 kts | 227° |
| 2026-05-04 23:06 | 33.94799 | -118.42733 | 123 ft | 16 kts | 216° |
| 2026-05-04 23:06 | 33.94667 | -118.42774 | 123 ft | 23 kts | 160° |
| 2026-05-04 23:06 | 33.94648 | -118.42578 | 125 ft | 31 kts | 85° |
| 2026-05-04 23:07 | 33.94679 | -118.42284 | 125 ft | 39 kts | 83° |
| 2026-05-04 23:07 | 33.94711 | -118.41967 | 125 ft | 35 kts | 83° |
| 2026-05-04 23:07 | 33.94743 | -118.41661 | 125 ft | 38 kts | 83° |
| 2026-05-04 23:07 | 33.94784 | -118.41372 | 125 ft | 32 kts | 74° |
| 2026-05-04 23:08 | 33.94816 | -118.41079 | 125 ft | 38 kts | 81° |
| 2026-05-04 23:08 | 33.94849 | -118.40756 | 123 ft | 42 kts | 82° |
| 2026-05-04 23:08 | 33.94885 | -118.40399 | 125 ft | 41 kts | 81° |
| 2026-05-04 23:08 | 33.94909 | -118.40117 | 125 ft | 22 kts | 103° |
| 2026-05-04 23:09 | 33.94836 | -118.40022 | 123 ft | 14 kts | 131° |
| 2026-05-04 23:09 | 33.94775 | -118.40044 | 125 ft | 9 kts | 242° |
| 2026-05-04 23:09 | 33.94767 | -118.40064 | 123 ft | 0 kts | 243° |
| 2026-05-04 23:09 | 33.94766 | -118.40065 | 123 ft | 0 kts | 243° |